Time;durP1;ratioP1;P1;durP2;ratioP2;P2;SDS_P1;SDS_P2;PMS_P1;PMS_P2;Temp;Humidity;BMP_temperature;BMP_pressure;BME280_temperature;BME280_humidity;BME280_pressure;Samples;Min_cycle;Max_cycle;Signal;HPM_P1;HPM_P2
2024/01/17 00:00:05;;;;;;;;;;;;;;;;;;5028284;28;20397;-74
2024/01/17 00:02:31;;;;;;;;;;;;;;;;;;5035902;28;19963;-73
2024/01/17 00:04:56;;;;;;;;;;;;;;;;;;5047908;28;20006;-73
2024/01/17 00:07:21;;;;;;;;;;;;;;;;;;5049453;28;20386;-73
2024/01/17 00:09:46;;;;;;;;;;;;;;;;;;5048474;28;19921;-73
2024/01/17 00:12:11;;;;;;;;;;;;;;;;;;5042410;28;19925;-74
2024/01/17 00:14:36;;;;;;;;;;;;;;;;;;5034552;28;20002;-74
2024/01/17 00:17:02;;;;;;;;;;;;;;;;;;5044172;28;20398;-73
2024/01/17 00:19:29;;;;;;;;;;;;;;;;;;5042731;28;19917;-73
2024/01/17 00:21:55;;;;;;;;;;;;;;;;;;5031063;28;19917;-73
2024/01/17 00:24:20;;;;;;;;;;;;;;;;;;5041617;28;19943;-73
2024/01/17 00:26:45;;;;;;;;;;;;;;;;;;5040871;28;19924;-73
2024/01/17 00:29:10;;;;;;;;;;;;;;;;;;5040747;28;19927;-73
2024/01/17 00:31:35;;;;;;;;;;;;;;;;;;5034245;28;19918;-73
2024/01/17 00:34:00;;;;;;;;;;;;;;;;;;5045139;28;19917;-72
2024/01/17 00:36:25;;;;;;;;;;;;;;;;;;5042527;28;19929;-73
2024/01/17 00:38:51;;;;;;;;;;;;;;;;;;5035146;28;19917;-72
2024/01/17 00:41:16;;;;;;;;;;;;;;;;;;5029330;28;19917;-73
2024/01/17 00:43:41;;;;;;;;;;;;;;;;;;5044706;28;20298;-73
2024/01/17 00:46:06;;;;;;;;;;;;;;;;;;5035022;28;19925;-73
2024/01/17 00:48:31;;;;;;;;;;;;;;;;;;5034739;28;19964;-72
2024/01/17 00:50:56;;;;;;;;;;;;;;;;;;5040632;28;20312;-72
2024/01/17 00:53:22;;;;;;;;;;;;;;;;;;5048683;28;20409;-72
2024/01/17 00:55:47;;;;;;;;;;;;;;;;;;5040417;28;19924;-72
2024/01/17 00:58:12;;;;;;;;;;;;;;;;;;5044961;28;19953;-72
2024/01/17 01:00:39;;;;;;;;;;;;;;;;;;5035977;28;19917;-73
2024/01/17 01:03:04;;;;;;;;;;;;;;;;;;5031198;28;19917;-72
2024/01/17 01:05:29;;;;;;;;;;;;;;;;;;5042871;28;19921;-72
2024/01/17 01:07:54;;;;;;;;;;;;;;;;;;5043457;28;20385;-72
2024/01/17 01:10:19;;;;;;;;;;;;;;;;;;5028565;28;19917;-72
2024/01/17 01:12:44;;;;;;;;;;;;;;;;;;5028869;28;19927;-72
2024/01/17 01:15:09;;;;;;;;;;;;;;;;;;5027590;28;19952;-72
2024/01/17 01:17:34;;;;;;;;;;;;;;;;;;5035981;28;20008;-72
2024/01/17 01:19:59;;;;;;;;;;;;;;;;;;5042494;28;20043;-72
2024/01/17 01:22:24;;;;;;;;;;;;;;;;;;5045012;28;19921;-72
2024/01/17 01:24:50;;;;;;;;;;;;;;;;;;5035290;28;19921;-72
2024/01/17 01:27:15;;;;;;;;;;;;;;;;;;5052016;28;19970;-72
2024/01/17 01:29:40;;;;;;;;;;;;;;;;;;5045325;28;19991;-72
2024/01/17 01:32:05;;;;;;;;;;;;;;;;;;5034109;28;19998;-74
2024/01/17 01:34:30;;;;;;;;;;;;;;;;;;5046260;28;19917;-72
2024/01/17 01:36:55;;;;;;;;;;;;;;;;;;5032427;28;20320;-72
2024/01/17 01:39:20;;;;;;;;;;;;;;;;;;5043453;28;19920;-72
2024/01/17 01:41:45;;;;;;;;;;;;;;;;;;5043404;28;19917;-72
2024/01/17 01:44:11;;;;;;;;;;;;;;;;;;5046833;28;19983;-73
2024/01/17 01:46:36;;;;;;;;;;;;;;;;;;5040153;28;19918;-72
2024/01/17 01:49:01;;;;;;;;;;;;;;;;;;5033024;28;19975;-72
2024/01/17 01:51:26;;;;;;;;;;;;;;;;;;5038913;28;20000;-74
2024/01/17 01:53:51;;;;;;;;;;;;;;;;;;5040027;28;19933;-72
2024/01/17 01:56:16;;;;;;;;;;;;;;;;;;5022961;28;19918;-73
2024/01/17 01:58:41;;;;;;;;;;;;;;;;;;5039602;28;19928;-72
2024/01/17 02:01:07;;;;;;;;;;;;;;;;;;5033360;28;19924;-72
2024/01/17 02:03:32;;;;;;;;;;;;;;;;;;5042715;28;19920;-72
2024/01/17 02:05:57;;;;;;;;;;;;;;;;;;5034247;28;19917;-72
2024/01/17 02:08:22;;;;;;;;;;;;;;;;;;5039073;28;20457;-73
2024/01/17 02:10:47;;;;;;;;;;;;;;;;;;5039505;28;19947;-72
2024/01/17 02:13:12;;;;;;;;;;;;;;;;;;5041941;28;19921;-72
2024/01/17 02:15:37;;;;;;;;;;;;;;;;;;5036801;28;19917;-72
2024/01/17 02:18:02;;;;;;;;;;;;;;;;;;5038555;28;19917;-72
2024/01/17 02:20:27;;;;;;;;;;;;;;;;;;5038115;28;19928;-72
2024/01/17 02:22:53;;;;;;;;;;;;;;;;;;5039379;28;20329;-72
2024/01/17 02:25:18;;;;;;;;;;;;;;;;;;5047481;28;19917;-72
2024/01/17 02:27:43;;;;;;;;;;;;;;;;;;5045669;28;19916;-72
2024/01/17 02:30:08;;;;;;;;;;;;;;;;;;5046551;28;19970;-73
2024/01/17 02:32:33;;;;;;;;;;;;;;;;;;5034532;28;19928;-72
2024/01/17 02:34:58;;;;;;;;;;;;;;;;;;5028848;28;19921;-72
2024/01/17 02:37:23;;;;;;;;;;;;;;;;;;5033123;28;19921;-72
2024/01/17 02:39:48;;;;;;;;;;;;;;;;;;5041019;28;20294;-72
2024/01/17 02:42:13;;;;;;;;;;;;;;;;;;5040195;28;20357;-72
2024/01/17 02:44:38;;;;;;;;;;;;;;;;;;5038088;28;20460;-72
2024/01/17 02:47:04;;;;;;;;;;;;;;;;;;5033349;28;19925;-72
2024/01/17 02:49:29;;;;;;;;;;;;;;;;;;5037564;28;20308;-72
2024/01/17 02:51:54;;;;;;;;;;;;;;;;;;5043206;28;19949;-72
2024/01/17 02:54:19;;;;;;;;;;;;;;;;;;5044040;28;19966;-72
2024/01/17 02:56:44;;;;;;;;;;;;;;;;;;5039019;28;20483;-72
2024/01/17 02:59:09;;;;;;;;;;;;;;;;;;5040151;28;19956;-72
2024/01/17 03:01:34;;;;;;;;;;;;;;;;;;5038453;28;20019;-72
2024/01/17 03:04:00;;;;;;;;;;;;;;;;;;5058638;28;20352;-72
2024/01/17 03:06:25;;;;;;;;;;;;;;;;;;5041758;28;19921;-73
2024/01/17 03:08:50;;;;;;;;;;;;;;;;;;5034439;28;19921;-72
2024/01/17 03:11:15;;;;;;;;;;;;;;;;;;5030904;28;19988;-72
2024/01/17 03:13:40;;;;;;;;;;;;;;;;;;5036811;28;19940;-72
2024/01/17 03:16:05;;;;;;;;;;;;;;;;;;5038872;28;19921;-74
2024/01/17 03:18:31;;;;;;;;;;;;;;;;;;5041608;28;20006;-72
2024/01/17 03:20:56;;;;;;;;;;;;;;;;;;5042878;28;19959;-72
2024/01/17 03:23:21;;;;;;;;;;;;;;;;;;5038282;28;19925;-72
2024/01/17 03:25:46;;;;;;;;;;;;;;;;;;5037986;28;20301;-72
2024/01/17 03:28:11;;;;;;;;;;;;;;;;;;5039084;28;19924;-73
2024/01/17 03:30:36;;;;;;;;;;;;;;;;;;5043921;28;19929;-72
2024/01/17 03:33:02;;;;;;;;;;;;;;;;;;5037454;28;19920;-72
2024/01/17 03:35:28;;;;;;;;;;;;;;;;;;5038091;28;20536;-72
2024/01/17 03:37:53;;;;;;;;;;;;;;;;;;5045382;28;20366;-72
2024/01/17 03:40:18;;;;;;;;;;;;;;;;;;5045737;28;19931;-73
2024/01/17 03:42:43;;;;;;;;;;;;;;;;;;5044227;28;19920;-72
2024/01/17 03:45:08;;;;;;;;;;;;;;;;;;5048069;28;19924;-72
2024/01/17 03:47:33;;;;;;;;;;;;;;;;;;5041019;28;19955;-72
2024/01/17 03:49:58;;;;;;;;;;;;;;;;;;5040610;28;20298;-72
2024/01/17 03:52:24;;;;;;;;;;;;;;;;;;5034131;28;19955;-72
2024/01/17 03:54:49;;;;;;;;;;;;;;;;;;5033362;28;19925;-72
2024/01/17 03:57:14;;;;;;;;;;;;;;;;;;5045587;28;19956;-72
2024/01/17 03:59:39;;;;;;;;;;;;;;;;;;5049102;28;20011;-72
2024/01/17 04:02:04;;;;;;;;;;;;;;;;;;5037781;28;19921;-73
2024/01/17 04:04:29;;;;;;;;;;;;;;;;;;5040523;28;20396;-72
2024/01/17 04:06:55;;;;;;;;;;;;;;;;;;5049054;28;19917;-73
2024/01/17 04:09:20;;;;;;;;;;;;;;;;;;5044652;28;19921;-72
2024/01/17 04:11:45;;;;;;;;;;;;;;;;;;5037059;28;19931;-73
2024/01/17 04:14:10;;;;;;;;;;;;;;;;;;5037540;28;19959;-73
2024/01/17 04:16:36;;;;;;;;;;;;;;;;;;5042277;28;19917;-72
2024/01/17 04:19:01;;;;;;;;;;;;;;;;;;5048209;28;19928;-72
2024/01/17 04:21:26;;;;;;;;;;;;;;;;;;5041477;28;19917;-72
2024/01/17 04:23:51;;;;;;;;;;;;;;;;;;5048920;28;19925;-72
2024/01/17 04:26:16;;;;;;;;;;;;;;;;;;5040058;28;20382;-73
2024/01/17 04:28:41;;;;;;;;;;;;;;;;;;5048321;28;19928;-72
2024/01/17 04:31:06;;;;;;;;;;;;;;;;;;5040926;28;19943;-73
2024/01/17 04:33:31;;;;;;;;;;;;;;;;;;5048977;28;19921;-72
2024/01/17 04:35:56;;;;;;;;;;;;;;;;;;5048477;28;20450;-72
2024/01/17 04:38:22;;;;;;;;;;;;;;;;;;5037086;28;20476;-73
2024/01/17 04:40:47;;;;;;;;;;;;;;;;;;5038908;28;19956;-72
2024/01/17 04:43:12;;;;;;;;;;;;;;;;;;5036684;28;20007;-72
2024/01/17 04:45:37;;;;;;;;;;;;;;;;;;5040353;28;20336;-72
2024/01/17 04:48:02;;;;;;;;;;;;;;;;;;5048899;28;19920;-72
2024/01/17 04:50:29;;;;;;;;;;;;;;;;;;5044985;28;20310;-72
2024/01/17 04:52:54;;;;;;;;;;;;;;;;;;5032150;28;19917;-72
2024/01/17 04:55:19;;;;;;;;;;;;;;;;;;5051347;28;19932;-72
2024/01/17 04:57:44;;;;;;;;;;;;;;;;;;5052872;28;19928;-72
2024/01/17 05:00:12;;;;;;;;;;;;;;;;;;5048547;28;19924;-72
2024/01/17 05:02:37;;;;;;;;;;;;;;;;;;5041930;28;19917;-72
2024/01/17 05:05:02;;;;;;;;;;;;;;;;;;5040596;28;19932;-72
2024/01/17 05:07:27;;;;;;;;;;;;;;;;;;5049300;28;19917;-72
2024/01/17 05:09:52;;;;;;;;;;;;;;;;;;5047206;28;19920;-72
2024/01/17 05:12:17;;;;;;;;;;;;;;;;;;5041784;28;19960;-73
2024/01/17 05:14:43;;;;;;;;;;;;;;;;;;5046051;28;19924;-72
2024/01/17 05:17:08;;;;;;;;;;;;;;;;;;5052509;28;20571;-72
2024/01/17 05:19:33;;;;;;;;;;;;;;;;;;5052092;28;20389;-71
2024/01/17 05:21:58;;;;;;;;;;;;;;;;;;5044595;28;20320;-73
2024/01/17 05:24:23;;;;;;;;;;;;;;;;;;5051547;28;19940;-72
2024/01/17 05:26:48;;;;;;;;;;;;;;;;;;5052488;28;19952;-72
2024/01/17 05:29:13;;;;;;;;;;;;;;;;;;5042585;28;19924;-72
2024/01/17 05:31:38;;;;;;;;;;;;;;;;;;5037377;28;20325;-72
2024/01/17 05:34:03;;;;;;;;;;;;;;;;;;5043672;28;20389;-73
2024/01/17 05:36:29;;;;;;;;;;;;;;;;;;5050265;28;19916;-72
2024/01/17 05:38:54;;;;;;;;;;;;;;;;;;5051398;28;20285;-72
2024/01/17 05:41:19;;;;;;;;;;;;;;;;;;5035727;28;20317;-72
2024/01/17 05:43:44;;;;;;;;;;;;;;;;;;5040454;28;19917;-72
2024/01/17 05:46:09;;;;;;;;;;;;;;;;;;5031248;28;19917;-72
2024/01/17 05:48:34;;;;;;;;;;;;;;;;;;5034946;28;19921;-72
2024/01/17 05:51:00;;;;;;;;;;;;;;;;;;5045437;28;19928;-72
2024/01/17 05:53:25;;;;;;;;;;;;;;;;;;5034485;28;19917;-72
2024/01/17 05:55:52;;;;;;;;;;;;;;;;;;5051511;28;19917;-73
2024/01/17 05:58:17;;;;;;;;;;;;;;;;;;5034472;28;19924;-73
2024/01/17 06:00:42;;;;;;;;;;;;;;;;;;5044851;28;20012;-72
2024/01/17 06:03:07;;;;;;;;;;;;;;;;;;5046131;28;19916;-72
2024/01/17 06:05:32;;;;;;;;;;;;;;;;;;5039876;28;20336;-73
2024/01/17 06:07:57;;;;;;;;;;;;;;;;;;5039457;28;19917;-73
2024/01/17 06:10:24;;;;;;;;;;;;;;;;;;5046912;28;19929;-73
2024/01/17 06:12:49;;;;;;;;;;;;;;;;;;5031460;28;19917;-72
2024/01/17 06:15:17;;;;;;;;;;;;;;;;;;5048695;28;19943;-73
2024/01/17 06:17:43;;;;;;;;;;;;;;;;;;5038178;28;19959;-72
2024/01/17 06:20:09;;;;;;;;;;;;;;;;;;5037394;28;19921;-74
2024/01/17 06:22:35;;;;;;;;;;;;;;;;;;5045353;28;20023;-73
2024/01/17 06:25:00;;;;;;;;;;;;;;;;;;5044402;28;19996;-73
2024/01/17 06:27:25;;;;;;;;;;;;;;;;;;5039847;28;20045;-72
2024/01/17 06:29:51;;;;;;;;;;;;;;;;;;5050999;28;20436;-72
2024/01/17 06:32:16;;;;;;;;;;;;;;;;;;5043163;28;20235;-72
2024/01/17 06:34:43;;;;;;;;;;;;;;;;;;5031154;28;19932;-73
2024/01/17 06:37:08;;;;;;;;;;;;;;;;;;5030567;28;20378;-73
2024/01/17 06:39:33;;;;;;;;;;;;;;;;;;5036172;28;19928;-72
2024/01/17 06:41:59;;;;;;;;;;;;;;;;;;5041221;28;20393;-72
2024/01/17 06:44:24;;;;;;;;;;;;;;;;;;5037713;28;19925;-72
2024/01/17 06:46:49;;;;;;;;;;;;;;;;;;5044483;28;19924;-72
2024/01/17 06:49:14;;;;;;;;;;;;;;;;;;5050352;28;19924;-73
2024/01/17 06:51:39;;;;;;;;;;;;;;;;;;5043274;28;20300;-72
2024/01/17 06:54:04;;;;;;;;;;;;;;;;;;5042114;28;19928;-73
2024/01/17 06:56:29;;;;;;;;;;;;;;;;;;5040234;28;20289;-72
2024/01/17 06:58:54;;;;;;;;;;;;;;;;;;5044249;28;19928;-72
2024/01/17 07:01:19;;;;;;;;;;;;;;;;;;5038651;28;19925;-73
2024/01/17 07:03:45;;;;;;;;;;;;;;;;;;5030557;28;20010;-72
2024/01/17 07:06:10;;;;;;;;;;;;;;;;;;5042800;28;19917;-73
2024/01/17 07:08:36;;;;;;;;;;;;;;;;;;5049753;28;20077;-73
2024/01/17 07:11:01;;;;;;;;;;;;;;;;;;5032818;28;19932;-72
2024/01/17 07:13:26;;;;;;;;;;;;;;;;;;5045700;28;20043;-72
2024/01/17 07:15:51;;;;;;;;;;;;;;;;;;5042951;28;19920;-72
2024/01/17 07:18:16;;;;;;;;;;;;;;;;;;5041025;28;19917;-72
2024/01/17 07:20:41;;;;;;;;;;;;;;;;;;5035041;28;20324;-72
2024/01/17 07:23:06;;;;;;;;;;;;;;;;;;5030669;28;19925;-69
2024/01/17 07:25:32;;;;;;;;;;;;;;;;;;5027328;28;20019;-69
2024/01/17 07:27:57;;;;;;;;;;;;;;;;;;5029029;28;19966;-69
2024/01/17 07:30:22;;;;;;;;;;;;;;;;;;5044744;28;20305;-69
2024/01/17 07:32:47;;;;;;;;;;;;;;;;;;5042000;28;20305;-69
2024/01/17 07:35:14;;;;;;;;;;;;;;;;;;5030431;28;19921;-69
2024/01/17 07:37:39;;;;;;;;;;;;;;;;;;5019036;28;19929;-69
2024/01/17 07:40:04;;;;;;;;;;;;;;;;;;5033623;28;19931;-69
2024/01/17 07:42:29;;;;;;;;;;;;;;;;;;5028184;28;19922;-69
2024/01/17 07:44:58;;;;;;;;;;;;;;;;;;5038110;28;19924;-69
2024/01/17 07:47:24;;;;;;;;;;;;;;;;;;5020416;28;19975;-68
2024/01/17 07:49:49;;;;;;;;;;;;;;;;;;5020957;28;20398;-69
2024/01/17 07:52:14;;;;;;;;;;;;;;;;;;5024745;28;19925;-68
2024/01/17 07:54:39;;;;;;;;;;;;;;;;;;5046771;28;19970;-68
2024/01/17 07:57:04;;;;;;;;;;;;;;;;;;5051642;28;20530;-68
2024/01/17 07:59:29;;;;;;;;;;;;;;;;;;5046200;28;19927;-68
2024/01/17 08:01:54;;;;;;;;;;;;;;;;;;5049276;28;19935;-68
2024/01/17 08:04:20;;;;;;;;;;;;;;;;;;5046342;28;19956;-68
2024/01/17 08:06:45;;;;;;;;;;;;;;;;;;5047409;28;20007;-68
2024/01/17 08:09:26;;;;;;;;;;;;;;;;;;5044205;28;20321;-68
2024/01/17 08:11:51;;;;;;;;;;;;;;;;;;5049307;28;19929;-68
2024/01/17 08:14:16;;;;;;;;;;;;;;;;;;5039830;28;19928;-68
2024/01/17 08:16:41;;;;;;;;;;;;;;;;;;5036295;28;19932;-68
2024/01/17 08:19:06;;;;;;;;;;;;;;;;;;5058918;28;19975;-68
2024/01/17 08:21:31;;;;;;;;;;;;;;;;;;5042027;28;19925;-69
2024/01/17 08:23:56;;;;;;;;;;;;;;;;;;5045946;28;19929;-69
2024/01/17 08:26:21;;;;;;;;;;;;;;;;;;5038008;28;20325;-68
2024/01/17 08:28:46;;;;;;;;;;;;;;;;;;5043247;28;19932;-68
2024/01/17 08:31:12;;;;;;;;;;;;;;;;;;5040345;28;19924;-68
2024/01/17 08:33:37;;;;;;;;;;;;;;;;;;5041238;28;19931;-69
2024/01/17 08:36:02;;;;;;;;;;;;;;;;;;5038446;28;19925;-68
2024/01/17 08:38:27;;;;;;;;;;;;;;;;;;5041735;28;19974;-68
2024/01/17 08:40:52;;;;;;;;;;;;;;;;;;5046517;28;19955;-70
2024/01/17 08:43:17;;;;;;;;;;;;;;;;;;5042827;28;19975;-69
2024/01/17 08:45:42;;;;;;;;;;;;;;;;;;5041290;28;20289;-69
2024/01/17 08:48:07;;;;;;;;;;;;;;;;;;5044563;28;19920;-70
2024/01/17 08:50:32;;;;;;;;;;;;;;;;;;5046960;28;19924;-70
2024/01/17 08:52:58;;;;;;;;;;;;;;;;;;5043819;28;19921;-70
2024/01/17 08:55:23;;;;;;;;;;;;;;;;;;5039442;28;19921;-70
2024/01/17 08:57:48;;;;;;;;;;;;;;;;;;5044203;28;20424;-70
2024/01/17 09:00:14;;;;;;;;;;;;;;;;;;5040420;28;20455;-70
2024/01/17 09:02:39;;;;;;;;;;;;;;;;;;5046050;28;19979;-70
2024/01/17 09:05:04;;;;;;;;;;;;;;;;;;5047748;28;20289;-70
2024/01/17 09:07:29;;;;;;;;;;;;;;;;;;5041132;28;19921;-71
2024/01/17 09:09:54;;;;;;;;;;;;;;;;;;5044983;28;20305;-69
2024/01/17 09:12:19;;;;;;;;;;;;;;;;;;5042638;28;19965;-71
2024/01/17 09:14:44;;;;;;;;;;;;;;;;;;5047180;28;19921;-69
2024/01/17 09:17:09;;;;;;;;;;;;;;;;;;5050132;28;20294;-70
2024/01/17 09:19:35;;;;;;;;;;;;;;;;;;5044267;28;19921;-69
2024/01/17 09:22:00;;;;;;;;;;;;;;;;;;5043370;28;20469;-70
2024/01/17 09:24:25;;;;;;;;;;;;;;;;;;5038907;28;20044;-70
2024/01/17 09:26:51;;;;;;;;;;;;;;;;;;5042174;28;19982;-70
2024/01/17 09:29:16;;;;;;;;;;;;;;;;;;5043230;28;19924;-71
2024/01/17 09:31:42;;;;;;;;;;;;;;;;;;5044067;28;19979;-70
2024/01/17 09:34:07;;;;;;;;;;;;;;;;;;5043974;28;19947;-70
2024/01/17 09:36:32;;;;;;;;;;;;;;;;;;5047163;28;19975;-69
2024/01/17 09:38:57;;;;;;;;;;;;;;;;;;5045789;28;19921;-69
2024/01/17 09:41:22;;;;;;;;;;;;;;;;;;5048969;28;19921;-70
2024/01/17 09:43:47;;;;;;;;;;;;;;;;;;5047920;28;20354;-70
2024/01/17 09:46:12;;;;;;;;;;;;;;;;;;5048397;28;19929;-69
2024/01/17 09:48:37;;;;;;;;;;;;;;;;;;5050457;28;20194;-70
2024/01/17 09:51:03;;;;;;;;;;;;;;;;;;5044830;28;20443;-69
2024/01/17 09:53:28;;;;;;;;;;;;;;;;;;5047062;28;20409;-69
2024/01/17 09:55:53;;;;;;;;;;;;;;;;;;5049617;28;19946;-69
2024/01/17 09:58:18;;;;;;;;;;;;;;;;;;5046285;28;19929;-69
2024/01/17 10:00:43;;;;;;;;;;;;;;;;;;5047973;28;20270;-69
2024/01/17 10:03:09;;;;;;;;;;;;;;;;;;5049481;28;19968;-69
2024/01/17 10:05:34;;;;;;;;;;;;;;;;;;5054219;28;19979;-69
2024/01/17 10:08:00;;;;;;;;;;;;;;;;;;5049975;28;19920;-69
2024/01/17 10:10:25;;;;;;;;;;;;;;;;;;5042756;28;20874;-69
2024/01/17 10:12:50;;;;;;;;;;;;;;;;;;5043230;28;19921;-69
2024/01/17 10:15:15;;;;;;;;;;;;;;;;;;5057381;28;19940;-70
2024/01/17 10:17:40;;;;;;;;;;;;;;;;;;5046641;28;19944;-70
2024/01/17 10:20:06;;;;;;;;;;;;;;;;;;5046715;28;19936;-70
2024/01/17 10:22:32;;;;;;;;;;;;;;;;;;5048535;28;19927;-69
2024/01/17 10:24:57;;;;;;;;;;;;;;;;;;5050271;28;19921;-69
2024/01/17 10:27:22;;;;;;;;;;;;;;;;;;5062709;28;19921;-70
2024/01/17 10:29:47;;;;;;;;;;;;;;;;;;5046776;28;19978;-69
2024/01/17 10:32:12;;;;;;;;;;;;;;;;;;5045851;28;19924;-70
2024/01/17 10:34:38;;;;;;;;;;;;;;;;;;5049610;28;19927;-70
2024/01/17 10:37:04;;;;;;;;;;;;;;;;;;5045488;28;20381;-69
2024/01/17 10:39:29;;;;;;;;;;;;;;;;;;5045799;28;19920;-70
2024/01/17 10:41:54;;;;;;;;;;;;;;;;;;5049881;28;20007;-69
2024/01/17 10:44:19;;;;;;;;;;;;;;;;;;5048497;28;20369;-69
2024/01/17 10:46:44;;;;;;;;;;;;;;;;;;5052138;28;19920;-69
2024/01/17 10:49:09;;;;;;;;;;;;;;;;;;5040857;28;20394;-70
2024/01/17 10:51:35;;;;;;;;;;;;;;;;;;5043718;28;20046;-69
2024/01/17 10:54:01;;;;;;;;;;;;;;;;;;5055604;28;20347;-69
2024/01/17 10:56:26;;;;;;;;;;;;;;;;;;5049678;28;19925;-69
2024/01/17 10:58:51;;;;;;;;;;;;;;;;;;5043083;28;20086;-69
2024/01/17 11:01:17;;;;;;;;;;;;;;;;;;5044087;28;19935;-69
2024/01/17 11:03:42;;;;;;;;;;;;;;;;;;5045354;28;19934;-69
2024/01/17 11:06:07;;;;;;;;;;;;;;;;;;5047552;28;19924;-69
2024/01/17 11:08:32;;;;;;;;;;;;;;;;;;5048518;28;20400;-69
2024/01/17 11:10:57;;;;;;;;;;;;;;;;;;5048532;28;19921;-69
2024/01/17 11:13:24;;;;;;;;;;;;;;;;;;5053559;28;19921;-70
2024/01/17 11:15:49;;;;;;;;;;;;;;;;;;5053551;28;19927;-70
2024/01/17 11:18:14;;;;;;;;;;;;;;;;;;5047725;28;19925;-70
2024/01/17 11:20:40;;;;;;;;;;;;;;;;;;5047832;28;19917;-69
2024/01/17 11:23:05;;;;;;;;;;;;;;;;;;5049679;28;20226;-70
2024/01/17 11:25:30;;;;;;;;;;;;;;;;;;5052717;28;19935;-69
2024/01/17 11:27:55;;;;;;;;;;;;;;;;;;5051685;28;20301;-70
2024/01/17 11:30:20;;;;;;;;;;;;;;;;;;5045329;28;20285;-69
2024/01/17 11:32:45;;;;;;;;;;;;;;;;;;5041765;28;20374;-69
2024/01/17 11:35:10;;;;;;;;;;;;;;;;;;5042625;28;19955;-69
2024/01/17 11:37:38;;;;;;;;;;;;;;;;;;5042031;28;19928;-69
2024/01/17 11:40:07;;;;;;;;;;;;;;;;;;5048706;28;20339;-69
2024/01/17 11:42:32;;;;;;;;;;;;;;;;;;5047385;28;19986;-69
2024/01/17 11:44:58;;;;;;;;;;;;;;;;;;5045390;28;19924;-69
2024/01/17 11:47:23;;;;;;;;;;;;;;;;;;5049025;28;19974;-68
2024/01/17 11:49:49;;;;;;;;;;;;;;;;;;5043603;28;20167;-68
2024/01/17 11:52:14;;;;;;;;;;;;;;;;;;5045381;28;19929;-67
2024/01/17 11:54:39;;;;;;;;;;;;;;;;;;5046654;28;20374;-67
2024/01/17 11:57:06;;;;;;;;;;;;;;;;;;5046273;28;19925;-67
2024/01/17 11:59:32;;;;;;;;;;;;;;;;;;5046515;28;19929;-67
2024/01/17 12:01:57;;;;;;;;;;;;;;;;;;5042447;28;20340;-67
2024/01/17 12:04:22;;;;;;;;;;;;;;;;;;5045178;28;19928;-67
2024/01/17 12:06:47;;;;;;;;;;;;;;;;;;5048224;28;19921;-66
2024/01/17 12:09:18;;;;;;;;;;;;;;;;;;5047673;28;19987;-67
2024/01/17 12:11:43;;;;;;;;;;;;;;;;;;5046354;28;19921;-66
2024/01/17 12:14:08;;;;;;;;;;;;;;;;;;5044861;28;20240;-66
2024/01/17 12:16:33;;;;;;;;;;;;;;;;;;5044874;28;19920;-67
2024/01/17 12:18:58;;;;;;;;;;;;;;;;;;5048473;28;20393;-66
2024/01/17 12:21:23;;;;;;;;;;;;;;;;;;5048525;28;19979;-67
2024/01/17 12:23:49;;;;;;;;;;;;;;;;;;5045224;28;20008;-67
2024/01/17 12:26:14;;;;;;;;;;;;;;;;;;5043239;28;20389;-66
2024/01/17 12:28:39;;;;;;;;;;;;;;;;;;5042622;28;19925;-67
2024/01/17 12:31:06;;;;;;;;;;;;;;;;;;5049469;28;19978;-67
2024/01/17 12:33:31;;;;;;;;;;;;;;;;;;5040430;28;20333;-67
2024/01/17 12:35:57;;;;;;;;;;;;;;;;;;5047023;28;20435;-68
2024/01/17 12:38:22;;;;;;;;;;;;;;;;;;5048823;28;19928;-67
2024/01/17 12:40:47;;;;;;;;;;;;;;;;;;5050827;28;19920;-67
2024/01/17 12:43:12;;;;;;;;;;;;;;;;;;5046863;28;20344;-67
2024/01/17 12:45:38;;;;;;;;;;;;;;;;;;5046928;28;20530;-67
2024/01/17 12:48:03;;;;;;;;;;;;;;;;;;5044627;28;19928;-68
2024/01/17 12:50:28;;;;;;;;;;;;;;;;;;5039104;28;19968;-66
2024/01/17 12:52:54;;;;;;;;;;;;;;;;;;5047247;28;20313;-66
2024/01/17 12:55:22;;;;;;;;;;;;;;;;;;5047237;28;19920;-67
2024/01/17 12:57:47;;;;;;;;;;;;;;;;;;5050137;28;20308;-66
2024/01/17 13:00:13;;;;;;;;;;;;;;;;;;5045918;28;19944;-66
2024/01/17 13:02:38;;;;;;;;;;;;;;;;;;5041839;28;19971;-66
2024/01/17 13:05:04;;;;;;;;;;;;;;;;;;5048493;28;19928;-66
2024/01/17 13:07:31;;;;;;;;;;;;;;;;;;5049777;28;19924;-67
2024/01/17 13:09:56;;;;;;;;;;;;;;;;;;5045167;28;20024;-67
2024/01/17 13:12:21;;;;;;;;;;;;;;;;;;5043074;28;19924;-66
2024/01/17 13:14:47;;;;;;;;;;;;;;;;;;5048857;28;19991;-66
2024/01/17 13:17:12;;;;;;;;;;;;;;;;;;5053017;28;19963;-66
2024/01/17 13:19:37;;;;;;;;;;;;;;;;;;5048193;28;19928;-66
2024/01/17 13:22:02;;;;;;;;;;;;;;;;;;5049644;28;20000;-66
2024/01/17 13:24:28;;;;;;;;;;;;;;;;;;5050147;28;19921;-66
2024/01/17 13:26:53;;;;;;;;;;;;;;;;;;5048250;28;19920;-66
2024/01/17 13:29:18;;;;;;;;;;;;;;;;;;5047097;28;19970;-67
2024/01/17 13:31:44;;;;;;;;;;;;;;;;;;5050924;28;20389;-67
2024/01/17 13:34:10;;;;;;;;;;;;;;;;;;5050471;28;20390;-67
2024/01/17 13:36:35;;;;;;;;;;;;;;;;;;5050257;28;19931;-67
2024/01/17 13:39:00;;;;;;;;;;;;;;;;;;5048237;28;19974;-65
2024/01/17 13:41:26;;;;;;;;;;;;;;;;;;5051955;28;19956;-66
2024/01/17 13:43:53;;;;;;;;;;;;;;;;;;5052798;28;20601;-65
2024/01/17 13:46:18;;;;;;;;;;;;;;;;;;5049747;28;19921;-65
2024/01/17 13:48:43;;;;;;;;;;;;;;;;;;5041870;28;19932;-65
2024/01/17 13:51:12;;;;;;;;;;;;;;;;;;5045141;28;20378;-65
2024/01/17 13:53:41;;;;;;;;;;;;;;;;;;5051189;28;20408;-66
2024/01/17 13:56:06;;;;;;;;;;;;;;;;;;5048012;28;19957;-66
2024/01/17 13:58:34;;;;;;;;;;;;;;;;;;5049941;28;19928;-66
2024/01/17 14:01:04;;;;;;;;;;;;;;;;;;5044660;28;19921;-67
2024/01/17 14:03:29;;;;;;;;;;;;;;;;;;5048736;28;19936;-67
2024/01/17 14:05:54;;;;;;;;;;;;;;;;;;5045670;28;19929;-67
2024/01/17 14:08:19;;;;;;;;;;;;;;;;;;5047153;28;19990;-69
2024/01/17 14:10:44;;;;;;;;;;;;;;;;;;5049679;28;19975;-69
2024/01/17 14:13:09;;;;;;;;;;;;;;;;;;5048079;28;19994;-68
2024/01/17 14:15:37;;;;;;;;;;;;;;;;;;5041329;28;19921;-67
2024/01/17 14:18:04;;;;;;;;;;;;;;;;;;5046057;28;19994;-67
2024/01/17 14:20:29;;;;;;;;;;;;;;;;;;5054344;28;19928;-66
2024/01/17 14:22:56;;;;;;;;;;;;;;;;;;5050036;28;19921;-67
2024/01/17 14:25:21;;;;;;;;;;;;;;;;;;5033873;28;20313;-67
2024/01/17 14:27:46;;;;;;;;;;;;;;;;;;5044800;28;20325;-67
2024/01/17 14:30:12;;;;;;;;;;;;;;;;;;5044813;28;19943;-67
2024/01/17 14:32:37;;;;;;;;;;;;;;;;;;5052013;28;19921;-67
2024/01/17 14:35:02;;;;;;;;;;;;;;;;;;5054778;28;19917;-67
2024/01/17 14:37:27;;;;;;;;;;;;;;;;;;5051122;28;19970;-67
2024/01/17 14:39:52;;;;;;;;;;;;;;;;;;5048238;28;19921;-67
2024/01/17 14:42:22;;;;;;;;;;;;;;;;;;5056974;28;19940;-68
2024/01/17 14:44:47;;;;;;;;;;;;;;;;;;5049007;28;20366;-68
2024/01/17 14:47:13;;;;;;;;;;;;;;;;;;5041809;28;20393;-68
2024/01/17 14:49:38;;;;;;;;;;;;;;;;;;5049989;28;19929;-67
2024/01/17 14:52:03;;;;;;;;;;;;;;;;;;5048070;28;19952;-68
2024/01/17 14:54:28;;;;;;;;;;;;;;;;;;5052144;28;19964;-68
2024/01/17 14:56:53;;;;;;;;;;;;;;;;;;5071635;28;20202;-67
2024/01/17 14:59:18;;;;;;;;;;;;;;;;;;5048574;28;19927;-68
2024/01/17 15:01:43;;;;;;;;;;;;;;;;;;5054602;28;19936;-68
2024/01/17 15:04:09;;;;;;;;;;;;;;;;;;5048431;28;19917;-68
2024/01/17 15:06:34;;;;;;;;;;;;;;;;;;5048816;28;19921;-67
2024/01/17 15:08:59;;;;;;;;;;;;;;;;;;5047355;28;19924;-68
2024/01/17 15:11:24;;;;;;;;;;;;;;;;;;5044862;28;19923;-68
2024/01/17 15:13:49;;;;;;;;;;;;;;;;;;5043886;28;19933;-68
2024/01/17 15:16:14;;;;;;;;;;;;;;;;;;5050500;28;19917;-68
2024/01/17 15:18:40;;;;;;;;;;;;;;;;;;5052648;28;19921;-67
2024/01/17 15:21:05;;;;;;;;;;;;;;;;;;5045351;28;20152;-67
2024/01/17 15:23:30;;;;;;;;;;;;;;;;;;5042570;28;19927;-68
2024/01/17 15:25:55;;;;;;;;;;;;;;;;;;5044825;28;19925;-68
2024/01/17 15:28:21;;;;;;;;;;;;;;;;;;5052371;28;19967;-67
2024/01/17 15:30:49;;;;;;;;;;;;;;;;;;5046134;28;20304;-68
2024/01/17 15:33:15;;;;;;;;;;;;;;;;;;5045658;28;20059;-67
2024/01/17 15:35:40;;;;;;;;;;;;;;;;;;5050318;28;20443;-67
2024/01/17 15:38:07;;;;;;;;;;;;;;;;;;5048716;28;19970;-68
2024/01/17 15:40:40;;;;;;;;;;;;;;;;;;5053646;28;20444;-67
2024/01/17 15:43:05;;;;;;;;;;;;;;;;;;5052351;28;19920;-67
2024/01/17 15:45:30;;;;;;;;;;;;;;;;;;5049229;28;19931;-67
2024/01/17 15:47:55;;;;;;;;;;;;;;;;;;5042315;28;19925;-68
2024/01/17 15:50:20;;;;;;;;;;;;;;;;;;5037725;28;20298;-68
2024/01/17 15:52:45;;;;;;;;;;;;;;;;;;5052657;28;19921;-67
2024/01/17 15:55:12;;;;;;;;;;;;;;;;;;5056505;28;19927;-73
2024/01/17 15:57:37;;;;;;;;;;;;;;;;;;5038132;28;20298;-73
2024/01/17 16:00:03;;;;;;;;;;;;;;;;;;5062915;28;20267;-72
2024/01/17 16:02:28;;;;;;;;;;;;;;;;;;5046735;28;19921;-72
2024/01/17 16:04:53;;;;;;;;;;;;;;;;;;5046653;28;20355;-72
2024/01/17 16:07:18;;;;;;;;;;;;;;;;;;5044070;28;19920;-72
2024/01/17 16:09:47;;;;;;;;;;;;;;;;;;5049152;28;19936;-72
2024/01/17 16:12:13;;;;;;;;;;;;;;;;;;5046152;28;19917;-73
2024/01/17 16:14:38;;;;;;;;;;;;;;;;;;5061720;28;19928;-72
2024/01/17 16:17:04;;;;;;;;;;;;;;;;;;5058320;28;19948;-73
2024/01/17 16:19:29;;;;;;;;;;;;;;;;;;5047912;28;19956;-72
2024/01/17 16:21:54;;;;;;;;;;;;;;;;;;5041537;28;19920;-73
2024/01/17 16:24:19;;;;;;;;;;;;;;;;;;5060166;28;20154;-73
2024/01/17 16:26:44;;;;;;;;;;;;;;;;;;5059587;28;19971;-73
2024/01/17 16:29:10;;;;;;;;;;;;;;;;;;5056303;28;20430;-72
2024/01/17 16:31:35;;;;;;;;;;;;;;;;;;5045456;28;20401;-73